createdAt,value
2023-05-08T00:02:16.964Z,8.10
2023-05-08T00:04:45.731Z,9.00
2023-05-08T00:07:14.413Z,8.90
2023-05-08T00:09:43.154Z,10.10
2023-05-08T00:12:11.830Z,9.80
2023-05-08T00:14:40.583Z,9.10
2023-05-08T00:17:09.289Z,9.40
2023-05-08T00:19:37.945Z,8.10
2023-05-08T00:22:06.642Z,8.90
2023-05-08T00:24:35.302Z,10.30
2023-05-08T00:27:03.941Z,8.10
2023-05-08T00:29:32.620Z,8.20
2023-05-08T00:32:01.403Z,7.80
2023-05-08T00:34:30.069Z,8.30
2023-05-08T00:36:58.761Z,8.80
2023-05-08T00:39:27.398Z,7.20
2023-05-08T00:41:56.054Z,8.30
2023-05-08T00:44:24.695Z,7.90
2023-05-08T00:46:53.371Z,7.40
2023-05-08T00:49:22.470Z,8.60
2023-05-08T00:51:54.682Z,7.00
2023-05-08T00:54:23.472Z,7.20
2023-05-08T00:56:53.343Z,7.70
2023-05-08T00:59:23.052Z,8.40
2023-05-08T01:01:52.600Z,7.40
2023-05-08T01:04:25.351Z,7.30
2023-05-08T01:06:54.019Z,7.60
2023-05-08T01:09:22.731Z,7.20
2023-05-08T01:12:16.281Z,6.60
2023-05-08T01:15:08.805Z,7.60
2023-05-08T01:17:56.311Z,7.10
2023-05-08T01:20:56.656Z,6.70
2023-05-08T01:23:53.170Z,6.70
2023-05-08T01:26:59.846Z,6.80
2023-05-08T01:29:37.857Z,7.00
2023-05-08T01:32:24.973Z,6.90
2023-05-08T01:35:12.598Z,6.50
2023-05-08T01:37:47.369Z,6.00
2023-05-08T01:40:33.996Z,7.30
2023-05-08T01:43:28.092Z,6.30
2023-05-08T01:45:59.483Z,6.20
2023-05-08T01:48:31.719Z,5.90
2023-05-08T01:51:19.161Z,6.60
2023-05-08T01:53:52.437Z,6.60
2023-05-08T01:56:24.052Z,6.20
2023-05-08T01:58:55.590Z,6.40
2023-05-08T02:01:26.361Z,6.40
2023-05-08T02:03:58.097Z,6.90
2023-05-08T02:06:29.034Z,5.80
2023-05-08T02:08:59.880Z,5.90
2023-05-08T02:11:31.874Z,6.40
2023-05-08T02:14:02.070Z,6.50
2023-05-08T02:16:31.822Z,6.10
2023-05-08T02:19:02.593Z,7.00
2023-05-08T02:21:33.059Z,7.40
2023-05-08T02:24:03.436Z,6.90
2023-05-08T02:26:34.583Z,6.10
2023-05-08T02:29:04.107Z,7.30
2023-05-08T02:31:33.434Z,6.50
2023-05-08T02:34:04.191Z,6.00
2023-05-08T02:36:34.613Z,6.50
2023-05-08T02:39:04.099Z,6.80
2023-05-08T02:41:34.016Z,6.30
2023-05-08T02:44:02.801Z,6.50
2023-05-08T02:46:38.357Z,7.20
2023-05-08T02:49:17.173Z,6.20
2023-05-08T02:51:55.819Z,6.60
2023-05-08T02:54:40.045Z,8.50
2023-05-08T02:57:27.482Z,6.80
2023-05-08T03:00:01.502Z,6.40
2023-05-08T03:02:36.441Z,6.50
2023-05-08T03:05:19.067Z,6.90
2023-05-08T03:07:51.929Z,6.70
2023-05-08T03:10:25.140Z,6.80
2023-05-08T03:12:57.477Z,6.90
2023-05-08T03:15:33.352Z,7.20
2023-05-08T03:18:13.827Z,8.80
2023-05-08T03:20:47.984Z,7.20
2023-05-08T03:23:20.105Z,8.30
2023-05-08T03:25:48.871Z,8.00
2023-05-08T03:28:18.642Z,7.60
2023-05-08T03:30:49.300Z,7.60
2023-05-08T03:33:19.481Z,6.40
2023-05-08T03:35:49.932Z,7.50
2023-05-08T03:38:18.712Z,8.00
2023-05-08T03:40:47.554Z,8.30
2023-05-08T03:43:17.593Z,8.10
2023-05-08T03:45:47.621Z,7.30
2023-05-08T03:48:16.876Z,7.70
2023-05-08T03:50:46.406Z,8.60
2023-05-08T03:53:15.342Z,8.10
2023-05-08T03:55:44.005Z,8.10
2023-05-08T03:58:31.481Z,7.90
2023-05-08T04:01:23.442Z,8.40
2023-05-08T04:04:01.357Z,8.50
2023-05-08T04:06:48.713Z,10.60
2023-05-08T04:09:28.188Z,9.90
2023-05-08T04:12:05.188Z,8.90
2023-05-08T04:14:41.953Z,9.60
2023-05-08T04:17:15.854Z,9.60
2023-05-08T04:19:47.111Z,9.80
2023-05-08T04:22:20.484Z,9.50
2023-05-08T04:24:51.421Z,9.90
2023-05-08T04:27:21.066Z,9.60
2023-05-08T04:29:50.033Z,8.10
2023-05-08T04:32:19.178Z,11.30
2023-05-08T04:34:48.412Z,11.20
2023-05-08T04:37:28.433Z,11.90
2023-05-08T04:39:57.838Z,11.60
2023-05-08T04:42:27.308Z,10.80
2023-05-08T04:44:56.714Z,11.60
2023-05-08T04:47:25.500Z,11.00
2023-05-08T04:49:54.228Z,12.20
2023-05-08T04:52:22.956Z,12.90
2023-05-08T04:54:51.643Z,16.70
2023-05-08T04:57:20.289Z,12.80
2023-05-08T04:59:49.001Z,11.60
2023-05-08T05:02:17.839Z,11.10
2023-05-08T05:04:46.833Z,11.30
2023-05-08T05:07:15.649Z,11.90
2023-05-08T05:09:44.437Z,10.00
2023-05-08T05:12:13.134Z,11.10
2023-05-08T05:14:41.833Z,10.60
2023-05-08T05:17:10.510Z,10.50
2023-05-08T05:19:39.185Z,11.60
2023-05-08T05:22:08.228Z,9.80
2023-05-08T05:24:36.996Z,5.80
2023-05-08T05:27:05.747Z,5.80
2023-05-08T05:29:34.471Z,5.50
2023-05-08T05:32:03.258Z,7.50
2023-05-08T05:34:31.933Z,7.80
2023-05-08T05:37:00.585Z,5.60
2023-05-08T05:39:29.254Z,7.00
2023-05-08T05:41:57.922Z,6.90
2023-05-08T05:44:26.572Z,6.90
2023-05-08T05:46:55.399Z,5.80
2023-05-08T05:49:24.103Z,4.80
2023-05-08T05:51:52.822Z,6.30
2023-05-08T05:54:21.575Z,6.70
2023-05-08T05:56:50.224Z,5.90
2023-05-08T05:59:18.916Z,4.10
2023-05-08T06:01:47.589Z,5.10
2023-05-08T06:04:16.300Z,4.80
2023-05-08T06:06:45.011Z,4.90
2023-05-08T06:09:13.749Z,5.20
2023-05-08T06:11:42.509Z,4.20
2023-05-08T06:14:11.308Z,2.70
2023-05-08T06:16:40.072Z,3.90
2023-05-08T06:19:09.008Z,3.30
2023-05-08T06:21:39.130Z,3.40
2023-05-08T06:24:08.035Z,3.40
2023-05-08T06:26:36.744Z,2.60
2023-05-08T06:29:05.424Z,2.70
2023-05-08T06:31:34.311Z,2.50
2023-05-08T06:34:03.256Z,2.50
2023-05-08T06:36:32.313Z,2.60
2023-05-08T06:39:01.085Z,2.20
2023-05-08T06:41:29.807Z,2.60
2023-05-08T06:43:58.499Z,3.20
2023-05-08T06:46:27.277Z,2.50
2023-05-08T06:48:55.947Z,2.10
2023-05-08T06:51:24.745Z,2.30
2023-05-08T06:53:53.398Z,2.30
2023-05-08T06:56:22.792Z,2.20
2023-05-08T06:59:04.560Z,1.70
2023-05-08T07:01:37.576Z,1.90
2023-05-08T07:04:06.627Z,1.70
2023-05-08T07:06:35.512Z,2.40
2023-05-08T07:09:04.295Z,2.10
2023-05-08T07:11:33.018Z,1.60
2023-05-08T07:14:01.852Z,2.10
2023-05-08T07:16:30.649Z,1.70
2023-05-08T07:18:59.400Z,1.80
2023-05-08T07:21:29.356Z,2.30
2023-05-08T07:23:58.024Z,2.10
2023-05-08T07:26:27.428Z,2.30
2023-05-08T07:28:56.071Z,2.30
2023-05-08T07:31:24.792Z,2.10
2023-05-08T07:33:53.486Z,2.00
2023-05-08T07:36:22.903Z,1.30
2023-05-08T07:38:51.560Z,1.90
2023-05-08T07:41:20.250Z,2.10
2023-05-08T07:43:48.980Z,1.70
2023-05-08T07:46:18.833Z,2.10
2023-05-08T07:48:47.619Z,1.40
2023-05-08T07:51:16.548Z,1.90
2023-05-08T07:53:45.273Z,1.90
2023-05-08T07:56:14.172Z,2.00
2023-05-08T07:58:43.052Z,2.30
2023-05-08T08:01:11.930Z,2.00
2023-05-08T08:03:41.082Z,1.60
2023-05-08T08:06:09.802Z,2.20
2023-05-08T08:08:39.316Z,1.60
2023-05-08T08:11:08.053Z,1.80
2023-05-08T08:13:36.741Z,1.40
2023-05-08T08:16:06.338Z,1.40
2023-05-08T08:18:38.615Z,1.90
2023-05-08T08:21:07.830Z,1.60
2023-05-08T08:23:36.755Z,2.10
2023-05-08T08:26:05.556Z,1.90
2023-05-08T08:28:34.301Z,1.00
2023-05-08T08:31:03.032Z,1.60
2023-05-08T08:33:31.741Z,1.70
2023-05-08T08:36:00.475Z,1.80
2023-05-08T08:38:29.182Z,1.50
2023-05-08T08:40:57.897Z,1.70
2023-05-08T08:43:26.828Z,1.50
2023-05-08T08:45:56.782Z,1.50
2023-05-08T08:48:28.468Z,1.60
2023-05-08T08:51:03.123Z,1.70
2023-05-08T08:53:38.253Z,1.70
2023-05-08T08:56:08.798Z,1.80
2023-05-08T08:58:51.134Z,1.60
2023-05-08T09:01:21.748Z,1.50
2023-05-08T09:03:51.352Z,1.60
2023-05-08T09:06:20.411Z,1.20
2023-05-08T09:08:49.379Z,1.70
2023-05-08T09:11:18.027Z,1.20
2023-05-08T09:13:46.718Z,2.20
2023-05-08T09:16:15.477Z,1.50
2023-05-08T09:18:44.290Z,1.20
2023-05-08T09:21:13.181Z,1.80
2023-05-08T09:24:03.095Z,1.40
2023-05-08T09:26:40.069Z,1.40
2023-05-08T09:29:16.145Z,1.30
2023-05-08T09:31:50.195Z,1.70
2023-05-08T09:34:28.455Z,1.50
2023-05-08T09:37:09.589Z,1.30
2023-05-08T09:39:43.224Z,1.70
2023-05-08T09:42:12.110Z,1.20
2023-05-08T09:44:46.126Z,1.50
2023-05-08T09:47:23.120Z,1.20
2023-05-08T09:50:00.259Z,1.40
2023-05-08T09:52:30.683Z,1.10
2023-05-08T09:55:05.618Z,1.30
2023-05-08T09:57:38.534Z,1.40
2023-05-08T10:00:13.259Z,0.90
2023-05-08T10:02:55.156Z,1.30
2023-05-08T10:05:27.592Z,1.60
2023-05-08T10:07:58.042Z,1.50
2023-05-08T10:10:28.609Z,1.40
2023-05-08T10:12:58.623Z,1.40
2023-05-08T10:15:34.011Z,1.60
2023-05-08T10:18:08.744Z,1.30
2023-05-08T10:20:47.267Z,1.70
2023-05-08T10:23:19.161Z,1.50
2023-05-08T10:25:55.844Z,1.30
2023-05-08T10:28:57.992Z,1.70
2023-05-08T10:31:34.079Z,1.20
2023-05-08T10:34:03.996Z,1.30
2023-05-08T10:36:33.290Z,1.80
2023-05-08T10:39:02.329Z,1.80
2023-05-08T10:41:31.124Z,1.00
2023-05-08T10:44:03.188Z,1.40
2023-05-08T10:46:53.777Z,1.70
2023-05-08T10:49:31.424Z,1.80
2023-05-08T10:52:24.771Z,1.30
2023-05-08T10:55:04.553Z,1.20
2023-05-08T10:57:33.336Z,1.40
2023-05-08T11:00:01.976Z,2.00
2023-05-08T11:02:32.829Z,1.20
2023-05-08T11:05:15.749Z,1.30
2023-05-08T11:07:58.260Z,2.00
2023-05-08T11:10:32.214Z,1.40
2023-05-08T11:13:01.568Z,0.90
2023-05-08T11:15:37.677Z,1.40
2023-05-08T11:18:11.512Z,1.50
2023-05-08T11:20:58.153Z,1.80
2023-05-08T11:23:28.495Z,2.10
2023-05-08T11:26:06.687Z,1.50
2023-05-08T11:28:58.897Z,1.60
2023-05-08T11:31:50.364Z,1.80
2023-05-08T11:34:44.416Z,1.30
2023-05-08T11:37:24.390Z,2.10
2023-05-08T11:39:53.284Z,2.10
2023-05-08T11:42:24.723Z,1.50
2023-05-08T11:45:09.937Z,1.20
2023-05-08T11:47:42.565Z,1.70
2023-05-08T11:50:14.545Z,1.50
2023-05-08T11:52:44.126Z,2.10
2023-05-08T11:55:15.869Z,2.30
2023-05-08T11:57:46.261Z,1.60
2023-05-08T12:00:15.892Z,2.20
2023-05-08T12:02:50.586Z,1.10
2023-05-08T12:05:28.111Z,2.10
2023-05-08T12:07:57.224Z,2.00
2023-05-08T12:10:26.117Z,2.00
2023-05-08T12:12:54.979Z,2.10
2023-05-08T12:15:23.907Z,1.90
2023-05-08T12:18:02.886Z,2.00
2023-05-08T12:20:33.732Z,2.00
2023-05-08T12:23:03.743Z,1.80
2023-05-08T12:25:32.523Z,1.80
2023-05-08T12:28:01.312Z,1.70
2023-05-08T12:30:30.251Z,2.20
2023-05-08T12:33:00.706Z,1.60
2023-05-08T12:35:29.614Z,1.60
2023-05-08T12:38:03.450Z,2.10
2023-05-08T12:40:34.760Z,2.00
2023-05-08T12:43:04.195Z,1.60
2023-05-08T12:45:39.513Z,1.70
2023-05-08T12:48:11.272Z,1.70
2023-05-08T12:50:41.965Z,1.50
2023-05-08T12:53:21.764Z,2.30
2023-05-08T12:55:53.716Z,1.80
2023-05-08T12:58:28.201Z,2.00
2023-05-08T13:01:10.268Z,1.80
2023-05-08T13:03:40.718Z,2.00
2023-05-08T13:06:21.253Z,1.80
2023-05-08T13:08:56.586Z,1.90
2023-05-08T13:11:31.286Z,2.20
2023-05-08T13:14:00.240Z,2.40
2023-05-08T13:16:29.162Z,2.40
2023-05-08T13:18:58.008Z,2.20
2023-05-08T13:21:27.943Z,1.50
2023-05-08T13:23:57.128Z,2.00
2023-05-08T13:26:26.325Z,2.40
2023-05-08T13:28:56.670Z,2.20
2023-05-08T13:31:26.091Z,2.60
2023-05-08T13:33:54.875Z,1.70
2023-05-08T13:36:24.429Z,2.10
2023-05-08T13:38:54.891Z,2.20
2023-05-08T13:41:23.667Z,2.20
2023-05-08T13:43:52.793Z,2.40
2023-05-08T13:46:21.655Z,2.10
2023-05-08T13:48:50.517Z,1.80
2023-05-08T13:51:19.287Z,1.60
2023-05-08T13:53:48.249Z,1.80
2023-05-08T13:56:18.590Z,1.80
2023-05-08T13:58:48.929Z,1.80
2023-05-08T14:01:26.436Z,1.70
2023-05-08T14:03:58.155Z,1.90
2023-05-08T14:06:27.924Z,2.30
2023-05-08T14:08:57.542Z,2.30
2023-05-08T14:11:27.271Z,3.10
2023-05-08T14:13:56.210Z,2.30
2023-05-08T14:16:29.638Z,2.40
2023-05-08T14:18:59.590Z,2.10
2023-05-08T14:21:28.774Z,2.20
2023-05-08T14:23:57.622Z,1.50
2023-05-08T14:26:26.778Z,1.90
2023-05-08T14:28:55.570Z,1.80
2023-05-08T14:31:24.577Z,2.50
2023-05-08T14:33:54.527Z,1.90
2023-05-08T14:36:23.443Z,2.10
2023-05-08T14:38:52.279Z,2.60
2023-05-08T14:41:22.011Z,2.20
2023-05-08T14:43:50.717Z,2.60
2023-05-08T14:46:19.446Z,2.10
2023-05-08T14:48:48.177Z,2.40
2023-05-08T14:51:19.313Z,2.30
2023-05-08T14:53:48.183Z,2.90
2023-05-08T14:56:18.049Z,1.80
2023-05-08T14:58:46.846Z,2.10
2023-05-08T15:01:15.680Z,2.20
2023-05-08T15:03:47.333Z,2.10
2023-05-08T15:06:16.143Z,1.90
2023-05-08T15:08:44.812Z,1.60
2023-05-08T15:11:13.522Z,1.80
2023-05-08T15:13:42.280Z,1.60
2023-05-08T15:16:10.969Z,1.90
2023-05-08T15:18:40.355Z,1.70
2023-05-08T15:21:09.076Z,1.90
2023-05-08T15:23:38.466Z,2.10
2023-05-08T15:26:08.446Z,1.40
2023-05-08T15:28:38.200Z,1.60
2023-05-08T15:31:06.886Z,1.90
2023-05-08T15:33:35.586Z,1.80
2023-05-08T15:36:04.650Z,1.70
2023-05-08T15:38:33.286Z,1.10
2023-05-08T15:41:01.959Z,2.00
2023-05-08T15:43:30.977Z,1.50
2023-05-08T15:46:00.889Z,1.70
2023-05-08T15:48:32.823Z,1.80
2023-05-08T15:51:03.745Z,1.50
2023-05-08T15:53:36.765Z,1.60
2023-05-08T15:56:07.471Z,2.00
2023-05-08T15:58:39.048Z,1.90
2023-05-08T16:01:10.053Z,1.50
2023-05-08T16:03:42.763Z,1.50
2023-05-08T16:06:17.039Z,1.90
2023-05-08T16:08:45.924Z,2.10
2023-05-08T16:11:16.018Z,1.60
2023-05-08T16:13:50.314Z,1.90
2023-05-08T16:16:19.875Z,1.60
2023-05-08T16:18:49.048Z,1.80
2023-05-08T16:21:28.842Z,1.80
2023-05-08T16:23:59.632Z,1.60
2023-05-08T16:26:31.931Z,1.80
2023-05-08T16:29:01.917Z,1.70
2023-05-08T16:31:30.888Z,2.10
2023-05-08T16:34:00.744Z,1.90
2023-05-08T16:36:29.772Z,2.10
2023-05-08T16:39:12.523Z,2.80
2023-05-08T16:41:42.290Z,2.00
2023-05-08T16:44:11.152Z,1.80
2023-05-08T16:46:40.005Z,2.40
2023-05-08T16:49:08.867Z,2.40
2023-05-08T16:51:37.709Z,2.10
2023-05-08T16:54:06.480Z,2.20
2023-05-08T16:56:36.333Z,2.00
2023-05-08T16:59:06.669Z,1.90
2023-05-08T17:01:35.626Z,2.60
2023-05-08T17:04:04.509Z,2.70
2023-05-08T17:06:33.934Z,2.50
2023-05-08T17:09:02.983Z,2.70
2023-05-08T17:11:31.729Z,2.40
2023-05-08T17:14:00.546Z,1.20
2023-05-08T17:16:29.348Z,2.50
2023-05-08T17:18:59.660Z,2.30
2023-05-08T17:21:30.274Z,2.60
2023-05-08T17:24:00.531Z,1.90
2023-05-08T17:26:33.094Z,1.70
2023-05-08T17:29:01.926Z,2.50
2023-05-08T17:31:30.842Z,1.80
2023-05-08T17:33:59.614Z,2.20
2023-05-08T17:36:28.383Z,2.20
2023-05-08T17:38:57.048Z,2.30
2023-05-08T17:41:25.704Z,2.10
2023-05-08T17:43:55.016Z,2.10
2023-05-08T17:46:23.778Z,2.40
2023-05-08T17:48:52.555Z,1.40
2023-05-08T17:51:21.273Z,2.00
2023-05-08T17:53:50.031Z,1.80
2023-05-08T17:56:20.621Z,2.30
2023-05-08T17:58:50.358Z,1.70
2023-05-08T18:01:20.083Z,1.90
2023-05-08T18:03:48.892Z,1.50
2023-05-08T18:06:18.562Z,2.00
2023-05-08T18:08:47.969Z,1.80
2023-05-08T18:11:19.769Z,1.80
2023-05-08T18:13:48.757Z,2.00
2023-05-08T18:16:19.260Z,2.00
2023-05-08T18:18:49.581Z,1.70
2023-05-08T18:21:18.396Z,2.30
2023-05-08T18:23:47.124Z,2.10
2023-05-08T18:26:17.133Z,2.50
2023-05-08T18:28:46.038Z,2.00
2023-05-08T18:31:16.380Z,2.00
2023-05-08T18:33:45.131Z,2.00
2023-05-08T18:36:13.871Z,2.10
2023-05-08T18:38:42.682Z,2.40
2023-05-08T18:41:11.450Z,2.70
2023-05-08T18:43:41.523Z,3.20
2023-05-08T18:46:14.721Z,2.80
2023-05-08T18:48:44.442Z,2.80
2023-05-08T18:51:13.152Z,2.90
2023-05-08T18:53:41.841Z,3.00
2023-05-08T18:56:12.471Z,2.60
2023-05-08T18:58:41.205Z,2.80
2023-05-08T19:01:10.202Z,3.20
2023-05-08T19:03:39.020Z,3.20
2023-05-08T19:06:07.767Z,2.90
2023-05-08T19:08:36.444Z,3.00
2023-05-08T19:11:05.106Z,4.10
2023-05-08T19:13:33.954Z,4.80
2023-05-08T19:16:02.775Z,5.80
2023-05-08T19:18:31.826Z,5.90
2023-05-08T19:21:01.598Z,7.70
2023-05-08T19:23:30.296Z,7.70
2023-05-08T19:25:59.017Z,8.40
2023-05-08T19:28:27.732Z,9.20
2023-05-08T19:30:56.509Z,9.50
2023-05-08T19:33:25.207Z,8.80
2023-05-08T19:35:53.857Z,9.60
2023-05-08T19:38:22.478Z,10.60
2023-05-08T19:40:56.315Z,10.30
2023-05-08T19:43:26.695Z,10.20
2023-05-08T19:45:56.024Z,9.90
2023-05-08T19:48:24.840Z,9.50
2023-05-08T19:50:56.155Z,10.10
2023-05-08T19:53:25.062Z,10.50
2023-05-08T19:55:53.811Z,10.60
2023-05-08T19:58:22.533Z,12.20
2023-05-08T20:00:51.658Z,13.00
2023-05-08T20:03:20.784Z,13.10
2023-05-08T20:05:51.701Z,11.80
2023-05-08T20:08:20.428Z,13.10
2023-05-08T20:10:49.242Z,11.90
2023-05-08T20:13:17.997Z,12.80
2023-05-08T20:15:46.830Z,13.10
2023-05-08T20:18:15.699Z,12.80
2023-05-08T20:20:46.054Z,11.40
2023-05-08T20:23:14.782Z,12.30
2023-05-08T20:25:46.358Z,12.90
2023-05-08T20:28:15.641Z,30.30
2023-05-08T20:30:44.390Z,40.30
2023-05-08T20:33:13.110Z,34.00
2023-05-08T20:35:41.865Z,25.00
2023-05-08T20:38:11.080Z,15.60
2023-05-08T20:40:40.364Z,12.00
2023-05-08T20:43:09.556Z,12.10
2023-05-08T20:45:38.851Z,11.10
2023-05-08T20:48:07.570Z,10.80
2023-05-08T20:50:36.256Z,11.00
2023-05-08T20:53:04.899Z,11.40
2023-05-08T20:55:33.574Z,11.70
2023-05-08T20:58:04.174Z,12.30
2023-05-08T21:00:34.485Z,12.60
2023-05-08T21:03:03.414Z,11.50
2023-05-08T21:05:32.104Z,10.90
2023-05-08T21:08:02.410Z,10.60
2023-05-08T21:10:31.433Z,10.60
2023-05-08T21:13:00.279Z,10.90
2023-05-08T21:15:29.058Z,16.50
2023-05-08T21:17:58.049Z,19.80
2023-05-08T21:20:26.868Z,20.90
2023-05-08T21:22:55.549Z,20.10
2023-05-08T21:25:24.274Z,16.40
2023-05-08T21:27:55.153Z,13.80
2023-05-08T21:30:24.174Z,12.50
2023-05-08T21:32:52.892Z,11.70
2023-05-08T21:35:22.183Z,11.40
2023-05-08T21:37:53.839Z,11.20
2023-05-08T21:40:23.461Z,11.50
2023-05-08T21:42:52.079Z,10.90
2023-05-08T21:45:20.853Z,11.60
2023-05-08T21:47:49.603Z,12.00
2023-05-08T21:50:18.533Z,12.70
2023-05-08T21:52:47.254Z,13.50
2023-05-08T21:55:16.109Z,12.50
2023-05-08T21:57:44.951Z,11.60
2023-05-08T22:00:14.569Z,12.20
2023-05-08T22:02:43.329Z,11.60
2023-05-08T22:05:12.332Z,11.90
2023-05-08T22:07:41.579Z,12.70
2023-05-08T22:10:11.582Z,14.30
2023-05-08T22:12:40.333Z,15.10
2023-05-08T22:15:21.740Z,15.30
2023-05-08T22:17:58.328Z,15.60
2023-05-08T22:20:27.118Z,14.60
2023-05-08T22:22:56.160Z,13.90
2023-05-08T22:25:25.690Z,14.80
2023-05-08T22:27:54.363Z,13.00
2023-05-08T22:30:23.197Z,12.20
2023-05-08T22:32:57.369Z,11.80
2023-05-08T22:35:27.763Z,12.40
2023-05-08T22:37:59.538Z,12.80
2023-05-08T22:40:28.750Z,12.90
2023-05-08T22:42:58.929Z,13.10
2023-05-08T22:45:28.093Z,11.40
2023-05-08T22:47:57.032Z,11.10
2023-05-08T22:50:25.994Z,11.50
2023-05-08T22:52:54.691Z,11.90
2023-05-08T22:55:23.501Z,12.30
2023-05-08T22:57:52.164Z,11.40
2023-05-08T23:00:21.088Z,11.00
2023-05-08T23:02:49.790Z,11.60
2023-05-08T23:05:18.675Z,11.10
2023-05-08T23:07:47.317Z,11.30
2023-05-08T23:10:16.145Z,11.10
2023-05-08T23:12:45.010Z,10.30
2023-05-08T23:15:14.325Z,9.40
2023-05-08T23:17:43.167Z,10.40
2023-05-08T23:20:12.163Z,10.40
2023-05-08T23:22:40.812Z,10.30
2023-05-08T23:25:11.883Z,10.60
2023-05-08T23:27:40.986Z,11.90
2023-05-08T23:30:13.142Z,10.90
2023-05-08T23:32:45.117Z,10.50
2023-05-08T23:35:14.043Z,10.40
2023-05-08T23:37:42.916Z,10.80
2023-05-08T23:40:12.120Z,10.80
2023-05-08T23:42:40.842Z,10.10
2023-05-08T23:45:12.100Z,9.90
2023-05-08T23:47:41.481Z,9.90
2023-05-08T23:50:11.356Z,10.00
2023-05-08T23:52:41.512Z,10.40
2023-05-08T23:55:10.538Z,10.00
2023-05-08T23:57:39.208Z,10.20
